sensor_id;sensor_type;location;lat;lon;timestamp;pressure;altitude;pressure_sealevel;temperature
65272;BMP280;51868;48.812;8.198;2022-12-16T00:01:52;99243.16;;;-1.13
65272;BMP280;51868;48.812;8.198;2022-12-16T00:04:20;99244.44;;;-1.14
65272;BMP280;51868;48.812;8.198;2022-12-16T00:06:48;99242.84;;;-1.17
65272;BMP280;51868;48.812;8.198;2022-12-16T00:09:17;99239.94;;;-1.19
65272;BMP280;51868;48.812;8.198;2022-12-16T00:11:45;99243.22;;;-1.21
65272;BMP280;51868;48.812;8.198;2022-12-16T00:14:13;99245.06;;;-1.23
65272;BMP280;51868;48.812;8.198;2022-12-16T00:16:41;99245.94;;;-1.21
65272;BMP280;51868;48.812;8.198;2022-12-16T00:19:10;99245.22;;;-1.21
65272;BMP280;51868;48.812;8.198;2022-12-16T00:21:38;99247.22;;;-1.22
65272;BMP280;51868;48.812;8.198;2022-12-16T00:24:06;99256.66;;;-1.23
65272;BMP280;51868;48.812;8.198;2022-12-16T00:26:34;99259.94;;;-1.24
65272;BMP280;51868;48.812;8.198;2022-12-16T00:29:02;99257.22;;;-1.24
65272;BMP280;51868;48.812;8.198;2022-12-16T00:31:31;99257.22;;;-1.24
65272;BMP280;51868;48.812;8.198;2022-12-16T00:34:00;99267.78;;;-1.29
65272;BMP280;51868;48.812;8.198;2022-12-16T00:36:32;99272.50;;;-1.29
65272;BMP280;51868;48.812;8.198;2022-12-16T00:39:01;99272.50;;;-1.29
65272;BMP280;51868;48.812;8.198;2022-12-16T00:41:32;99286.13;;;-1.29
65272;BMP280;51868;48.812;8.198;2022-12-16T00:46:28;99281.22;;;-1.31
65272;BMP280;51868;48.812;8.198;2022-12-16T00:48:55;99289.38;;;-1.31
65272;BMP280;51868;48.812;8.198;2022-12-16T00:51:23;99303.00;;;-1.31
65272;BMP280;51868;48.812;8.198;2022-12-16T00:53:53;99303.00;;;-1.31
65272;BMP280;51868;48.812;8.198;2022-12-16T00:56:20;99305.16;;;-1.29
65272;BMP280;51868;48.812;8.198;2022-12-16T00:58:48;99305.16;;;-1.29
65272;BMP280;51868;48.812;8.198;2022-12-16T01:01:16;99305.88;;;-1.29
65272;BMP280;51868;48.812;8.198;2022-12-16T01:03:47;99303.00;;;-1.31
65272;BMP280;51868;48.812;8.198;2022-12-16T01:06:16;99314.59;;;-1.30
65272;BMP280;51868;48.812;8.198;2022-12-16T01:08:44;99307.00;;;-1.32
65272;BMP280;51868;48.812;8.198;2022-12-16T01:11:17;99296.84;;;-1.31
65272;BMP280;51868;48.812;8.198;2022-12-16T01:13:48;99305.53;;;-1.33
65272;BMP280;51868;48.812;8.198;2022-12-16T01:16:17;99308.81;;;-1.34
65272;BMP280;51868;48.812;8.198;2022-12-16T01:18:45;99306.09;;;-1.34
65272;BMP280;51868;48.812;8.198;2022-12-16T01:21:13;99305.53;;;-1.33
65272;BMP280;51868;48.812;8.198;2022-12-16T01:23:41;99317.16;;;-1.32
65272;BMP280;51868;48.812;8.198;2022-12-16T01:26:09;99321.88;;;-1.33
65272;BMP280;51868;48.812;8.198;2022-12-16T01:28:43;99324.06;;;-1.31
65272;BMP280;51868;48.812;8.198;2022-12-16T01:31:10;99319.16;;;-1.33
65272;BMP280;51868;48.812;8.198;2022-12-16T01:33:38;99318.97;;;-1.35
65272;BMP280;51868;48.812;8.198;2022-12-16T01:36:08;99328.41;;;-1.36
65272;BMP280;51868;48.812;8.198;2022-12-16T01:38:36;99325.69;;;-1.36
65272;BMP280;51868;48.812;8.198;2022-12-16T01:41:08;99340.56;;;-1.37
65272;BMP280;51868;48.812;8.198;2022-12-16T01:43:40;99352.56;;;-1.40
65272;BMP280;51868;48.812;8.198;2022-12-16T01:46:15;99348.41;;;-1.41
65272;BMP280;51868;48.812;8.198;2022-12-16T01:48:48;99344.75;;;-1.43
65272;BMP280;51868;48.812;8.198;2022-12-16T01:51:21;99348.78;;;-1.44
65272;BMP280;51868;48.812;8.198;2022-12-16T01:53:54;99338.44;;;-1.46
65272;BMP280;51868;48.812;8.198;2022-12-16T01:56:23;99346.59;;;-1.46
65272;BMP280;51868;48.812;8.198;2022-12-16T01:58:54;99353.50;;;-1.45
65272;BMP280;51868;48.812;8.198;2022-12-16T02:01:24;99354.75;;;-1.46
65272;BMP280;51868;48.812;8.198;2022-12-16T02:03:53;99352.59;;;-1.48
65272;BMP280;51868;48.812;8.198;2022-12-16T02:06:22;99354.56;;;-1.48
65272;BMP280;51868;48.812;8.198;2022-12-16T02:08:54;99349.13;;;-1.48
65272;BMP280;51868;48.812;8.198;2022-12-16T02:11:32;99351.88;;;-1.48
65272;BMP280;51868;48.812;8.198;2022-12-16T02:14:25;99356.03;;;-1.47
65272;BMP280;51868;48.812;8.198;2022-12-16T02:16:59;99361.31;;;-1.49
65272;BMP280;51868;48.812;8.198;2022-12-16T02:20:14;99360.41;;;-1.52
65272;BMP280;51868;48.812;8.198;2022-12-16T02:23:02;99359.88;;;-1.50
65272;BMP280;51868;48.812;8.198;2022-12-16T02:25:49;99362.41;;;-1.52
65272;BMP280;51868;48.812;8.198;2022-12-16T02:28:33;99362.41;;;-1.52
65272;BMP280;51868;48.812;8.198;2022-12-16T02:31:14;99362.41;;;-1.52
65272;BMP280;51868;48.812;8.198;2022-12-16T02:36:55;99375.69;;;-1.56
65272;BMP280;51868;48.812;8.198;2022-12-16T02:39:30;99371.50;;;-1.57
65272;BMP280;51868;48.812;8.198;2022-12-16T02:42:06;99372.06;;;-1.59
65272;BMP280;51868;48.812;8.198;2022-12-16T02:44:44;99376.78;;;-1.59
65272;BMP280;51868;48.812;8.198;2022-12-16T02:47:18;99380.75;;;-1.60
65272;BMP280;51868;48.812;8.198;2022-12-16T02:49:49;99386.75;;;-1.62
65272;BMP280;51868;48.812;8.198;2022-12-16T02:52:20;99388.94;;;-1.60
65272;BMP280;51868;48.812;8.198;2022-12-16T02:54:50;99390.38;;;-1.59
65272;BMP280;51868;48.812;8.198;2022-12-16T02:57:41;99392.53;;;-1.58
65272;BMP280;51868;48.812;8.198;2022-12-16T03:00:14;99390.53;;;-1.57
65272;BMP280;51868;48.812;8.198;2022-12-16T03:02:52;99402.16;;;-1.57
65272;BMP280;51868;48.812;8.198;2022-12-16T03:05:24;99406.50;;;-1.54
65272;BMP280;51868;48.812;8.198;2022-12-16T03:07:55;99408.69;;;-1.52
65272;BMP280;51868;48.812;8.198;2022-12-16T03:10:26;99406.13;;;-1.50
65272;BMP280;51868;48.812;8.198;2022-12-16T03:12:56;99406.13;;;-1.50
65272;BMP280;51868;48.812;8.198;2022-12-16T03:15:28;99408.28;;;-1.49
65272;BMP280;51868;48.812;8.198;2022-12-16T03:17:59;99409.56;;;-1.50
65272;BMP280;51868;48.812;8.198;2022-12-16T03:20:32;99412.28;;;-1.50
65272;BMP280;51868;48.812;8.198;2022-12-16T03:23:07;99418.44;;;-1.49
65272;BMP280;51868;48.812;8.198;2022-12-16T03:25:37;99422.59;;;-1.48
65272;BMP280;51868;48.812;8.198;2022-12-16T03:28:12;99415.91;;;-1.47
65272;BMP280;51868;48.812;8.198;2022-12-16T03:30:49;99425.50;;;-1.46
65272;BMP280;51868;48.812;8.198;2022-12-16T03:33:23;99415.34;;;-1.45
65272;BMP280;51868;48.812;8.198;2022-12-16T03:35:55;99422.94;;;-1.44
65272;BMP280;51868;48.812;8.198;2022-12-16T03:38:26;99427.13;;;-1.43
65272;BMP280;51868;48.812;8.198;2022-12-16T03:40:55;99420.59;;;-1.40
65272;BMP280;51868;48.812;8.198;2022-12-16T03:43:24;99431.47;;;-1.40
65272;BMP280;51868;48.812;8.198;2022-12-16T03:45:53;99430.34;;;-1.37
65272;BMP280;51868;48.812;8.198;2022-12-16T03:48:26;99431.09;;;-1.36
65272;BMP280;51868;48.812;8.198;2022-12-16T03:50:54;99439.97;;;-1.36
65272;BMP280;51868;48.812;8.198;2022-12-16T03:53:21;99431.09;;;-1.36
65272;BMP280;51868;48.812;8.198;2022-12-16T03:55:52;99434.38;;;-1.38
65272;BMP280;51868;48.812;8.198;2022-12-16T03:58:22;99442.00;;;-1.36
65272;BMP280;51868;48.812;8.198;2022-12-16T04:00:50;99441.25;;;-1.37
65272;BMP280;51868;48.812;8.198;2022-12-16T04:03:17;99448.88;;;-1.35
65272;BMP280;51868;48.812;8.198;2022-12-16T04:05:49;99451.41;;;-1.37
65272;BMP280;51868;48.812;8.198;2022-12-16T04:08:17;99450.50;;;-1.40
65272;BMP280;51868;48.812;8.198;2022-12-16T04:10:44;99450.34;;;-1.42
65272;BMP280;51868;48.812;8.198;2022-12-16T04:13:30;99457.06;;;-1.43
65272;BMP280;51868;48.812;8.198;2022-12-16T04:16:16;99468.66;;;-1.42
65272;BMP280;51868;48.812;8.198;2022-12-16T04:19:01;99463.22;;;-1.42
65272;BMP280;51868;48.812;8.198;2022-12-16T04:21:48;99462.69;;;-1.41
65272;BMP280;51868;48.812;8.198;2022-12-16T04:24:34;99466.31;;;-1.38
65272;BMP280;51868;48.812;8.198;2022-12-16T04:27:02;99467.03;;;-1.38
65272;BMP280;51868;48.812;8.198;2022-12-16T04:29:47;99477.19;;;-1.38
65272;BMP280;51868;48.812;8.198;2022-12-16T04:32:32;99479.16;;;-1.39
65272;BMP280;51868;48.812;8.198;2022-12-16T04:35:14;99483.16;;;-1.40
65272;BMP280;51868;48.812;8.198;2022-12-16T04:38:00;99483.00;;;-1.42
65272;BMP280;51868;48.812;8.198;2022-12-16T04:40:45;99490.63;;;-1.40
65272;BMP280;51868;48.812;8.198;2022-12-16T04:43:30;99484.47;;;-1.41
65272;BMP280;51868;48.812;8.198;2022-12-16T04:46:16;99485.88;;;-1.40
65272;BMP280;51868;48.812;8.198;2022-12-16T04:49:01;99496.94;;;-1.38
65272;BMP280;51868;48.812;8.198;2022-12-16T04:51:46;99494.94;;;-1.37
65272;BMP280;51868;48.812;8.198;2022-12-16T04:54:33;99506.00;;;-1.35
65272;BMP280;51868;48.812;8.198;2022-12-16T04:57:21;99505.50;;;-1.34
65272;BMP280;51868;48.812;8.198;2022-12-16T05:00:07;99512.38;;;-1.33
65272;BMP280;51868;48.812;8.198;2022-12-16T05:03:00;99514.94;;;-1.35
65272;BMP280;51868;48.812;8.198;2022-12-16T05:05:46;99529.06;;;-1.36
65272;BMP280;51868;48.812;8.198;2022-12-16T05:08:36;99519.28;;;-1.39
65272;BMP280;51868;48.812;8.198;2022-12-16T05:11:23;99529.44;;;-1.40
65272;BMP280;51868;48.812;8.198;2022-12-16T05:14:08;99544.31;;;-1.41
65272;BMP280;51868;48.812;8.198;2022-12-16T05:16:53;99545.41;;;-1.44
65272;BMP280;51868;48.812;8.198;2022-12-16T05:19:40;99559.75;;;-1.51
65272;BMP280;51868;48.812;8.198;2022-12-16T05:22:25;99568.66;;;-1.58
65272;BMP280;51868;48.812;8.198;2022-12-16T05:25:10;99573.91;;;-1.60
65272;BMP280;51868;48.812;8.198;2022-12-16T05:27:58;99579.19;;;-1.62
65272;BMP280;51868;48.812;8.198;2022-12-16T05:30:43;99587.16;;;-1.64
65272;BMP280;51868;48.812;8.198;2022-12-16T05:33:29;99584.09;;;-1.69
65272;BMP280;51868;48.812;8.198;2022-12-16T05:36:14;99597.34;;;-1.73
65272;BMP280;51868;48.812;8.198;2022-12-16T05:38:59;99599.16;;;-1.75
65272;BMP280;51868;48.812;8.198;2022-12-16T05:41:48;99608.94;;;-1.80
65272;BMP280;51868;48.812;8.198;2022-12-16T05:44:35;99617.63;;;-1.81
65272;BMP280;51868;48.812;8.198;2022-12-16T05:47:34;99614.91;;;-1.81
65272;BMP280;51868;48.812;8.198;2022-12-16T05:50:19;99620.88;;;-1.83
65272;BMP280;51868;48.812;8.198;2022-12-16T05:53:04;99636.13;;;-1.88
65272;BMP280;51868;48.812;8.198;2022-12-16T05:55:50;99642.63;;;-1.91
65272;BMP280;51868;48.812;8.198;2022-12-16T05:58:35;99645.88;;;-1.92
65272;BMP280;51868;48.812;8.198;2022-12-16T06:01:22;99648.06;;;-1.98
65272;BMP280;51868;48.812;8.198;2022-12-16T06:04:08;99649.88;;;-2.01
65272;BMP280;51868;48.812;8.198;2022-12-16T06:06:53;99653.66;;;-2.04
65272;BMP280;51868;48.812;8.198;2022-12-16T06:09:41;99651.50;;;-2.05
65272;BMP280;51868;48.812;8.198;2022-12-16T06:12:26;99667.97;;;-2.11
65272;BMP280;51868;48.812;8.198;2022-12-16T06:15:12;99669.06;;;-2.14
65272;BMP280;51868;48.812;8.198;2022-12-16T06:17:58;99673.38;;;-2.19
65272;BMP280;51868;48.812;8.198;2022-12-16T06:20:43;99669.75;;;-2.21
65272;BMP280;51868;48.812;8.198;2022-12-16T06:23:29;99672.09;;;-2.25
65272;BMP280;51868;48.812;8.198;2022-12-16T06:26:14;99683.88;;;-2.31
65272;BMP280;51868;48.812;8.198;2022-12-16T06:29:02;99679.84;;;-2.37
65272;BMP280;51868;48.812;8.198;2022-12-16T06:31:47;99692.50;;;-2.40
65272;BMP280;51868;48.812;8.198;2022-12-16T06:34:34;99695.56;;;-2.43
65272;BMP280;51868;48.812;8.198;2022-12-16T06:37:20;99700.97;;;-2.51
65272;BMP280;51868;48.812;8.198;2022-12-16T06:40:09;99697.16;;;-2.56
65272;BMP280;51868;48.812;8.198;2022-12-16T06:42:57;99706.91;;;-2.60
65272;BMP280;51868;48.812;8.198;2022-12-16T06:45:43;99708.72;;;-2.63
65272;BMP280;51868;48.812;8.198;2022-12-16T06:48:28;99709.56;;;-2.68
65272;BMP280;51868;48.812;8.198;2022-12-16T06:51:15;99722.03;;;-2.73
65272;BMP280;51868;48.812;8.198;2022-12-16T06:54:00;99721.28;;;-2.73
65272;BMP280;51868;48.812;8.198;2022-12-16T06:56:46;99732.31;;;-2.79
65272;BMP280;51868;48.812;8.198;2022-12-16T06:59:31;99734.03;;;-2.89
65272;BMP280;51868;48.812;8.198;2022-12-16T07:02:16;99749.06;;;-2.96
65272;BMP280;51868;48.812;8.198;2022-12-16T07:05:02;99753.66;;;-3.04
65272;BMP280;51868;48.812;8.198;2022-12-16T07:07:49;99752.03;;;-3.07
65272;BMP280;51868;48.812;8.198;2022-12-16T07:10:35;99767.91;;;-3.11
65272;BMP280;51868;48.812;8.198;2022-12-16T07:13:23;99776.91;;;-3.16
65272;BMP280;51868;48.812;8.198;2022-12-16T07:16:08;99781.06;;;-3.15
65272;BMP280;51868;48.812;8.198;2022-12-16T07:18:54;99778.56;;;-3.13
65272;BMP280;51868;48.812;8.198;2022-12-16T07:21:39;99785.78;;;-3.16
65272;BMP280;51868;48.812;8.198;2022-12-16T07:24:26;99793.72;;;-3.18
65272;BMP280;51868;48.812;8.198;2022-12-16T07:27:11;99804.16;;;-3.22
65272;BMP280;51868;48.812;8.198;2022-12-16T07:29:56;99804.28;;;-3.27
65272;BMP280;51868;48.812;8.198;2022-12-16T07:32:41;99810.56;;;-3.33
65272;BMP280;51868;48.812;8.198;2022-12-16T07:35:27;99816.66;;;-3.40
65272;BMP280;51868;48.812;8.198;2022-12-16T07:38:12;99817.69;;;-3.43
65272;BMP280;51868;48.812;8.198;2022-12-16T07:41:01;99825.72;;;-3.37
65272;BMP280;51868;48.812;8.198;2022-12-16T07:43:46;99829.69;;;-3.38
65272;BMP280;51868;48.812;8.198;2022-12-16T07:46:31;99836.91;;;-3.41
65272;BMP280;51868;48.812;8.198;2022-12-16T07:49:18;99851.31;;;-3.46
65272;BMP280;51868;48.812;8.198;2022-12-16T07:52:03;99849.13;;;-3.47
65272;BMP280;51868;48.812;8.198;2022-12-16T07:54:49;99855.28;;;-3.47
65272;BMP280;51868;48.812;8.198;2022-12-16T07:57:35;99853.69;;;-3.42
65272;BMP280;51868;48.812;8.198;2022-12-16T08:00:21;99858.81;;;-3.39
65272;BMP280;51868;48.812;8.198;2022-12-16T08:03:06;99859.22;;;-3.35
65272;BMP280;51868;48.812;8.198;2022-12-16T08:05:51;99860.53;;;-3.28
65272;BMP280;51868;48.812;8.198;2022-12-16T08:08:37;99861.34;;;-3.20
65272;BMP280;51868;48.812;8.198;2022-12-16T08:11:22;99865.19;;;-3.15
65272;BMP280;51868;48.812;8.198;2022-12-16T08:14:08;99872.47;;;-3.10
65272;BMP280;51868;48.812;8.198;2022-12-16T08:16:54;99868.72;;;-3.07
65272;BMP280;51868;48.812;8.198;2022-12-16T08:19:39;99880.50;;;-3.04
65272;BMP280;51868;48.812;8.198;2022-12-16T08:22:24;99884.34;;;-3.00
65272;BMP280;51868;48.812;8.198;2022-12-16T08:25:10;99891.22;;;-2.99
65272;BMP280;51868;48.812;8.198;2022-12-16T08:27:55;99884.69;;;-3.03
65272;BMP280;51868;48.812;8.198;2022-12-16T08:30:42;99894.28;;;-3.02
65272;BMP280;51868;48.812;8.198;2022-12-16T08:33:27;99892.50;;;-3.00
65272;BMP280;51868;48.812;8.198;2022-12-16T08:36:13;99890.00;;;-2.98
65272;BMP280;51868;48.812;8.198;2022-12-16T08:38:58;99907.53;;;-2.99
65272;BMP280;51868;48.812;8.198;2022-12-16T08:41:43;99919.09;;;-2.98
65272;BMP280;51868;48.812;8.198;2022-12-16T08:47:16;99922.03;;;-2.96
65272;BMP280;51868;48.812;8.198;2022-12-16T08:50:01;99932.59;;;-2.93
65272;BMP280;51868;48.812;8.198;2022-12-16T08:52:46;99926.81;;;-2.89
65272;BMP280;51868;48.812;8.198;2022-12-16T08:55:32;99936.09;;;-2.84
65272;BMP280;51868;48.812;8.198;2022-12-16T08:58:21;99933.78;;;-2.80
65272;BMP280;51868;48.812;8.198;2022-12-16T09:01:06;99930.59;;;-2.71
65272;BMP280;51868;48.812;8.198;2022-12-16T09:03:55;99933.50;;;-2.56
65272;BMP280;51868;48.812;8.198;2022-12-16T09:06:50;99937.94;;;-2.24
65272;BMP280;51868;48.812;8.198;2022-12-16T09:09:35;99938.91;;;-1.85
65272;BMP280;51868;48.812;8.198;2022-12-16T09:12:20;99939.09;;;-1.39
65272;BMP280;51868;48.812;8.198;2022-12-16T09:15:06;99937.81;;;-0.94
65272;BMP280;51868;48.812;8.198;2022-12-16T09:17:52;99936.78;;;-0.60
65272;BMP280;51868;48.812;8.198;2022-12-16T09:20:39;99937.50;;;-0.29
65272;BMP280;51868;48.812;8.198;2022-12-16T09:23:33;99943.66;;;0.03
65272;BMP280;51868;48.812;8.198;2022-12-16T09:26:18;99939.22;;;0.30
65272;BMP280;51868;48.812;8.198;2022-12-16T09:29:04;99938.00;;;0.56
65272;BMP280;51868;48.812;8.198;2022-12-16T09:31:49;99941.53;;;0.82
65272;BMP280;51868;48.812;8.198;2022-12-16T09:34:34;99943.19;;;1.10
65272;BMP280;51868;48.812;8.198;2022-12-16T09:37:21;99958.72;;;1.33
65272;BMP280;51868;48.812;8.198;2022-12-16T09:40:08;99958.00;;;1.49
65272;BMP280;51868;48.812;8.198;2022-12-16T09:43:00;99953.69;;;1.64
65272;BMP280;51868;48.812;8.198;2022-12-16T09:45:56;99965.66;;;1.76
65272;BMP280;51868;48.812;8.198;2022-12-16T09:48:50;99962.19;;;1.93
65272;BMP280;51868;48.812;8.198;2022-12-16T09:51:39;99962.84;;;2.01
65272;BMP280;51868;48.812;8.198;2022-12-16T09:54:28;99970.09;;;2.06
65272;BMP280;51868;48.812;8.198;2022-12-16T09:57:17;99973.78;;;2.19
65272;BMP280;51868;48.812;8.198;2022-12-16T10:00:05;99970.56;;;2.30
65272;BMP280;51868;48.812;8.198;2022-12-16T10:02:51;99971.34;;;2.40
65272;BMP280;51868;48.812;8.198;2022-12-16T10:05:44;99967.22;;;2.49
65272;BMP280;51868;48.812;8.198;2022-12-16T10:08:38;99968.13;;;2.51
65272;BMP280;51868;48.812;8.198;2022-12-16T10:11:34;99973.09;;;2.63
65272;BMP280;51868;48.812;8.198;2022-12-16T10:14:40;99976.28;;;2.69
65272;BMP280;51868;48.812;8.198;2022-12-16T10:17:29;99963.44;;;2.62
65272;BMP280;51868;48.812;8.198;2022-12-16T10:20:23;99971.81;;;2.64
65272;BMP280;51868;48.812;8.198;2022-12-16T10:23:17;99972.41;;;2.72
65272;BMP280;51868;48.812;8.198;2022-12-16T10:26:09;99968.63;;;2.85
65272;BMP280;51868;48.812;8.198;2022-12-16T10:29:24;99966.31;;;2.91
65272;BMP280;51868;48.812;8.198;2022-12-16T10:32:14;99975.72;;;2.97
65272;BMP280;51868;48.812;8.198;2022-12-16T10:35:23;99961.59;;;3.01
65272;BMP280;51868;48.812;8.198;2022-12-16T10:38:17;99967.13;;;3.11
65272;BMP280;51868;48.812;8.198;2022-12-16T10:41:05;99969.50;;;3.24
65272;BMP280;51868;48.812;8.198;2022-12-16T10:43:52;99964.50;;;3.40
65272;BMP280;51868;48.812;8.198;2022-12-16T10:46:39;99969.16;;;3.47
65272;BMP280;51868;48.812;8.198;2022-12-16T10:49:52;99965.53;;;3.45
65272;BMP280;51868;48.812;8.198;2022-12-16T10:53:29;99971.88;;;3.47
65272;BMP280;51868;48.812;8.198;2022-12-16T10:59:41;99979.25;;;3.45
65272;BMP280;51868;48.812;8.198;2022-12-16T11:02:28;99978.28;;;3.23
65272;BMP280;51868;48.812;8.198;2022-12-16T11:05:29;99989.28;;;2.95
65272;BMP280;51868;48.812;8.198;2022-12-16T11:08:23;99997.94;;;2.74
65272;BMP280;51868;48.812;8.198;2022-12-16T11:11:29;100006.63;;;2.36
65272;BMP280;51868;48.812;8.198;2022-12-16T11:14:23;100000.75;;;2.05
65272;BMP280;51868;48.812;8.198;2022-12-16T11:17:30;100003.72;;;1.82
65272;BMP280;51868;48.812;8.198;2022-12-16T11:20:17;100006.97;;;1.63
65272;BMP280;51868;48.812;8.198;2022-12-16T11:23:13;100017.63;;;1.51
65272;BMP280;51868;48.812;8.198;2022-12-16T11:26:08;100010.84;;;1.35
65272;BMP280;51868;48.812;8.198;2022-12-16T11:29:12;100016.31;;;1.27
65272;BMP280;51868;48.812;8.198;2022-12-16T11:32:02;100022.47;;;1.35
65272;BMP280;51868;48.812;8.198;2022-12-16T11:34:52;100012.34;;;1.78
65272;BMP280;51868;48.812;8.198;2022-12-16T11:37:39;100014.50;;;1.97
65272;BMP280;51868;48.812;8.198;2022-12-16T11:40:25;100010.66;;;2.35
65272;BMP280;51868;48.812;8.198;2022-12-16T11:43:12;100012.34;;;2.48
65272;BMP280;51868;48.812;8.198;2022-12-16T11:46:01;100013.19;;;2.68
65272;BMP280;51868;48.812;8.198;2022-12-16T11:48:50;100021.19;;;2.73
65272;BMP280;51868;48.812;8.198;2022-12-16T11:51:39;100018.19;;;2.79
65272;BMP280;51868;48.812;8.198;2022-12-16T11:54:52;100025.06;;;2.97
65272;BMP280;51868;48.812;8.198;2022-12-16T11:57:43;100025.53;;;3.04
65272;BMP280;51868;48.812;8.198;2022-12-16T12:00:32;100024.19;;;3.22
65272;BMP280;51868;48.812;8.198;2022-12-16T12:03:21;100028.09;;;3.19
65272;BMP280;51868;48.812;8.198;2022-12-16T12:06:24;100026.25;;;3.31
65272;BMP280;51868;48.812;8.198;2022-12-16T12:09:16;100031.94;;;3.43
65272;BMP280;51868;48.812;8.198;2022-12-16T12:12:11;100038.59;;;3.50
65272;BMP280;51868;48.812;8.198;2022-12-16T12:15:03;100037.13;;;3.49
65272;BMP280;51868;48.812;8.198;2022-12-16T12:17:59;100044.66;;;3.48
65272;BMP280;51868;48.812;8.198;2022-12-16T12:20:48;100047.13;;;3.54
65272;BMP280;51868;48.812;8.198;2022-12-16T12:23:41;100047.78;;;3.81
65272;BMP280;51868;48.812;8.198;2022-12-16T12:26:31;100048.03;;;3.66
65272;BMP280;51868;48.812;8.198;2022-12-16T12:29:26;100046.63;;;3.38
65272;BMP280;51868;48.812;8.198;2022-12-16T12:32:18;100054.88;;;3.11
65272;BMP280;51868;48.812;8.198;2022-12-16T12:35:19;100059.47;;;3.08
65272;BMP280;51868;48.812;8.198;2022-12-16T12:38:13;100054.03;;;3.55
65272;BMP280;51868;48.812;8.198;2022-12-16T12:41:05;100043.13;;;6.39
65272;BMP280;51868;48.812;8.198;2022-12-16T12:44:00;100022.94;;;8.01
65272;BMP280;51868;48.812;8.198;2022-12-16T12:46:52;100027.59;;;9.74
65272;BMP280;51868;48.812;8.198;2022-12-16T12:49:42;100026.84;;;10.96
65272;BMP280;51868;48.812;8.198;2022-12-16T12:52:54;100037.22;;;11.81
65272;BMP280;51868;48.812;8.198;2022-12-16T12:55:48;100047.31;;;11.21
65272;BMP280;51868;48.812;8.198;2022-12-16T12:58:37;100043.81;;;11.72
65272;BMP280;51868;48.812;8.198;2022-12-16T13:01:26;100035.41;;;12.63
65272;BMP280;51868;48.812;8.198;2022-12-16T13:04:14;100035.94;;;13.41
65272;BMP280;51868;48.812;8.198;2022-12-16T13:07:00;100060.25;;;13.19
65272;BMP280;51868;48.812;8.198;2022-12-16T13:10:10;100062.56;;;11.71
65272;BMP280;51868;48.812;8.198;2022-12-16T13:13:30;100080.72;;;9.98
65272;BMP280;51868;48.812;8.198;2022-12-16T13:19:56;100085.41;;;10.55
65272;BMP280;51868;48.812;8.198;2022-12-16T13:22:43;100074.81;;;11.82
65272;BMP280;51868;48.812;8.198;2022-12-16T13:25:35;100068.31;;;13.09
65272;BMP280;51868;48.812;8.198;2022-12-16T13:28:23;100068.91;;;14.17
65272;BMP280;51868;48.812;8.198;2022-12-16T13:31:09;100076.88;;;14.03
65272;BMP280;51868;48.812;8.198;2022-12-16T13:33:56;100088.56;;;13.53
65272;BMP280;51868;48.812;8.198;2022-12-16T13:36:52;100103.63;;;11.73
65272;BMP280;51868;48.812;8.198;2022-12-16T13:39:40;100122.34;;;9.70
65272;BMP280;51868;48.812;8.198;2022-12-16T13:42:48;100126.06;;;7.80
65272;BMP280;51868;48.812;8.198;2022-12-16T13:45:35;100147.78;;;6.70
65272;BMP280;51868;48.812;8.198;2022-12-16T13:48:31;100148.63;;;5.87
65272;BMP280;51868;48.812;8.198;2022-12-16T13:54:59;100156.88;;;4.47
65272;BMP280;51868;48.812;8.198;2022-12-16T13:57:52;100164.97;;;3.89
65272;BMP280;51868;48.812;8.198;2022-12-16T14:00:42;100175.13;;;3.41
65272;BMP280;51868;48.812;8.198;2022-12-16T14:03:37;100171.16;;;3.08
65272;BMP280;51868;48.812;8.198;2022-12-16T14:06:24;100179.47;;;2.83
65272;BMP280;51868;48.812;8.198;2022-12-16T14:09:22;100178.56;;;2.63
65272;BMP280;51868;48.812;8.198;2022-12-16T14:12:16;100192.78;;;2.44
65272;BMP280;51868;48.812;8.198;2022-12-16T14:15:16;100197.34;;;2.24
65272;BMP280;51868;48.812;8.198;2022-12-16T14:18:07;100201.81;;;2.11
65272;BMP280;51868;48.812;8.198;2022-12-16T14:20:58;100207.34;;;1.96
65272;BMP280;51868;48.812;8.198;2022-12-16T14:23:48;100208.19;;;1.81
65272;BMP280;51868;48.812;8.198;2022-12-16T14:26:36;100216.28;;;1.72
65272;BMP280;51868;48.812;8.198;2022-12-16T14:29:31;100217.34;;;1.68
65272;BMP280;51868;48.812;8.198;2022-12-16T14:32:19;100225.06;;;1.62
65272;BMP280;51868;48.812;8.198;2022-12-16T14:35:11;100228.38;;;1.53
65272;BMP280;51868;48.812;8.198;2022-12-16T14:37:57;100227.84;;;1.47
65272;BMP280;51868;48.812;8.198;2022-12-16T14:40:49;100226.03;;;1.42
65272;BMP280;51868;48.812;8.198;2022-12-16T14:43:35;100232.22;;;1.42
65272;BMP280;51868;48.812;8.198;2022-12-16T14:46:28;100223.13;;;1.40
65272;BMP280;51868;48.812;8.198;2022-12-16T14:49:17;100230.81;;;1.34
65272;BMP280;51868;48.812;8.198;2022-12-16T14:52:14;100227.56;;;1.27
65272;BMP280;51868;48.812;8.198;2022-12-16T14:55:06;100239.59;;;1.24
65272;BMP280;51868;48.812;8.198;2022-12-16T14:58:04;100242.53;;;1.19
65272;BMP280;51868;48.812;8.198;2022-12-16T15:00:49;100240.16;;;1.15
65272;BMP280;51868;48.812;8.198;2022-12-16T15:03:44;100240.88;;;1.08
65272;BMP280;51868;48.812;8.198;2022-12-16T15:06:54;100251.31;;;1.02
65272;BMP280;51868;48.812;8.198;2022-12-16T15:09:58;100255.09;;;0.99
65272;BMP280;51868;48.812;8.198;2022-12-16T15:12:46;100256.59;;;1.00
65272;BMP280;51868;48.812;8.198;2022-12-16T15:15:34;100260.03;;;1.00
65272;BMP280;51868;48.812;8.198;2022-12-16T15:18:26;100257.66;;;0.97
65272;BMP280;51868;48.812;8.198;2022-12-16T15:21:14;100262.22;;;0.94
65272;BMP280;51868;48.812;8.198;2022-12-16T15:24:00;100268.25;;;0.93
65272;BMP280;51868;48.812;8.198;2022-12-16T15:26:45;100277.50;;;0.90
65272;BMP280;51868;48.812;8.198;2022-12-16T15:29:33;100277.34;;;0.88
65272;BMP280;51868;48.812;8.198;2022-12-16T15:32:27;100279.16;;;0.85
65272;BMP280;51868;48.812;8.198;2022-12-16T15:35:26;100294.09;;;0.76
65272;BMP280;51868;48.812;8.198;2022-12-16T15:38:22;100293.53;;;0.70
65272;BMP280;51868;48.812;8.198;2022-12-16T15:41:19;100301.94;;;0.72
65272;BMP280;51868;48.812;8.198;2022-12-16T15:44:04;100298.28;;;0.77
65272;BMP280;51868;48.812;8.198;2022-12-16T15:46:50;100305.19;;;0.78
65272;BMP280;51868;48.812;8.198;2022-12-16T15:49:37;100313.22;;;0.76
65272;BMP280;51868;48.812;8.198;2022-12-16T15:52:34;100313.38;;;0.71
65272;BMP280;51868;48.812;8.198;2022-12-16T15:55:31;100321.41;;;0.69
65272;BMP280;51868;48.812;8.198;2022-12-16T15:58:20;100321.94;;;0.67
65272;BMP280;51868;48.812;8.198;2022-12-16T16:01:07;100327.75;;;0.63
65272;BMP280;51868;48.812;8.198;2022-12-16T16:03:54;100338.13;;;0.57
65272;BMP280;51868;48.812;8.198;2022-12-16T16:06:43;100328.28;;;0.54
65272;BMP280;51868;48.812;8.198;2022-12-16T16:09:31;100335.56;;;0.52